sensor_id;sensor_type;location;lat;lon;timestamp;P1;durP1;ratioP1;P2;durP2;ratioP2
45642;SDS011;31358;46.008;11.144;2022-09-06T00:01:37;7.50;;;5.38;;
45642;SDS011;31358;46.008;11.144;2022-09-06T00:04:03;6.00;;;4.88;;
45642;SDS011;31358;46.008;11.144;2022-09-06T00:06:28;7.05;;;4.95;;
45642;SDS011;31358;46.008;11.144;2022-09-06T00:08:54;7.90;;;5.38;;
45642;SDS011;31358;46.008;11.144;2022-09-06T00:11:20;8.77;;;5.63;;
45642;SDS011;31358;46.008;11.144;2022-09-06T00:13:45;7.28;;;5.25;;
45642;SDS011;31358;46.008;11.144;2022-09-06T00:16:13;6.50;;;4.55;;
45642;SDS011;31358;46.008;11.144;2022-09-06T00:18:42;6.90;;;5.00;;
45642;SDS011;31358;46.008;11.144;2022-09-06T00:21:18;7.15;;;5.25;;
45642;SDS011;31358;46.008;11.144;2022-09-06T00:23:45;7.20;;;4.72;;
45642;SDS011;31358;46.008;11.144;2022-09-06T00:26:11;6.47;;;5.10;;
45642;SDS011;31358;46.008;11.144;2022-09-06T00:28:38;9.02;;;4.78;;
45642;SDS011;31358;46.008;11.144;2022-09-06T00:31:14;7.53;;;5.18;;
45642;SDS011;31358;46.008;11.144;2022-09-06T00:33:40;7.40;;;5.10;;
45642;SDS011;31358;46.008;11.144;2022-09-06T00:36:06;8.68;;;5.35;;
45642;SDS011;31358;46.008;11.144;2022-09-06T00:38:33;10.20;;;5.00;;
45642;SDS011;31358;46.008;11.144;2022-09-06T00:40:59;8.80;;;5.13;;
45642;SDS011;31358;46.008;11.144;2022-09-06T00:43:24;6.75;;;4.57;;
45642;SDS011;31358;46.008;11.144;2022-09-06T00:45:50;7.95;;;5.15;;
45642;SDS011;31358;46.008;11.144;2022-09-06T00:48:17;6.38;;;5.15;;
45642;SDS011;31358;46.008;11.144;2022-09-06T00:50:45;7.97;;;5.20;;
45642;SDS011;31358;46.008;11.144;2022-09-06T00:53:14;7.88;;;5.43;;
45642;SDS011;31358;46.008;11.144;2022-09-06T00:55:40;8.65;;;5.35;;
45642;SDS011;31358;46.008;11.144;2022-09-06T00:58:07;9.63;;;5.65;;
45642;SDS011;31358;46.008;11.144;2022-09-06T01:00:34;6.93;;;5.45;;
45642;SDS011;31358;46.008;11.144;2022-09-06T01:02:59;8.02;;;5.70;;
45642;SDS011;31358;46.008;11.144;2022-09-06T01:05:28;8.32;;;5.03;;
45642;SDS011;31358;46.008;11.144;2022-09-06T01:08:28;9.27;;;5.55;;
45642;SDS011;31358;46.008;11.144;2022-09-06T01:16:38;9.98;;;5.63;;
45642;SDS011;31358;46.008;11.144;2022-09-06T01:27:39;8.45;;;5.53;;
45642;SDS011;31358;46.008;11.144;2022-09-06T01:30:17;9.20;;;5.13;;
45642;SDS011;31358;46.008;11.144;2022-09-06T01:33:03;7.40;;;5.55;;
45642;SDS011;31358;46.008;11.144;2022-09-06T01:35:48;7.80;;;6.32;;
45642;SDS011;31358;46.008;11.144;2022-09-06T01:38:19;6.70;;;5.20;;
45642;SDS011;31358;46.008;11.144;2022-09-06T01:40:45;7.57;;;5.68;;
45642;SDS011;31358;46.008;11.144;2022-09-06T01:43:11;12.02;;;5.93;;
45642;SDS011;31358;46.008;11.144;2022-09-06T01:59:39;6.22;;;4.60;;
45642;SDS011;31358;46.008;11.144;2022-09-06T02:02:19;9.95;;;5.38;;
45642;SDS011;31358;46.008;11.144;2022-09-06T02:04:49;8.05;;;5.07;;
45642;SDS011;31358;46.008;11.144;2022-09-06T02:07:19;10.07;;;5.13;;
45642;SDS011;31358;46.008;11.144;2022-09-06T02:09:53;9.13;;;6.15;;
45642;SDS011;31358;46.008;11.144;2022-09-06T02:14:52;7.18;;;5.38;;
45642;SDS011;31358;46.008;11.144;2022-09-06T02:17:23;11.93;;;5.90;;
45642;SDS011;31358;46.008;11.144;2022-09-06T02:19:58;8.45;;;5.18;;
45642;SDS011;31358;46.008;11.144;2022-09-06T02:22:39;8.32;;;6.63;;
45642;SDS011;31358;46.008;11.144;2022-09-06T02:25:08;8.93;;;6.32;;
45642;SDS011;31358;46.008;11.144;2022-09-06T02:27:35;9.77;;;6.45;;
45642;SDS011;31358;46.008;11.144;2022-09-06T02:30:02;7.07;;;5.88;;
45642;SDS011;31358;46.008;11.144;2022-09-06T02:32:29;6.45;;;5.43;;
45642;SDS011;31358;46.008;11.144;2022-09-06T02:35:04;6.80;;;4.97;;
45642;SDS011;31358;46.008;11.144;2022-09-06T02:37:35;7.43;;;5.47;;
45642;SDS011;31358;46.008;11.144;2022-09-06T02:40:01;7.30;;;5.15;;
45642;SDS011;31358;46.008;11.144;2022-09-06T02:42:28;7.72;;;5.55;;
45642;SDS011;31358;46.008;11.144;2022-09-06T02:44:53;6.53;;;5.22;;
45642;SDS011;31358;46.008;11.144;2022-09-06T02:47:19;10.05;;;7.28;;
45642;SDS011;31358;46.008;11.144;2022-09-06T02:49:45;7.38;;;5.68;;
45642;SDS011;31358;46.008;11.144;2022-09-06T02:52:10;9.82;;;5.65;;
45642;SDS011;31358;46.008;11.144;2022-09-06T02:54:36;9.45;;;6.20;;
45642;SDS011;31358;46.008;11.144;2022-09-06T02:57:02;8.18;;;6.15;;
45642;SDS011;31358;46.008;11.144;2022-09-06T02:59:28;9.82;;;5.82;;
45642;SDS011;31358;46.008;11.144;2022-09-06T03:01:53;8.32;;;5.13;;
45642;SDS011;31358;46.008;11.144;2022-09-06T03:04:19;7.38;;;5.75;;
45642;SDS011;31358;46.008;11.144;2022-09-06T03:06:45;9.30;;;6.15;;
45642;SDS011;31358;46.008;11.144;2022-09-06T03:09:10;8.15;;;5.32;;
45642;SDS011;31358;46.008;11.144;2022-09-06T03:11:36;8.60;;;6.43;;
45642;SDS011;31358;46.008;11.144;2022-09-06T03:14:02;8.80;;;5.82;;
45642;SDS011;31358;46.008;11.144;2022-09-06T03:16:28;6.93;;;5.97;;
45642;SDS011;31358;46.008;11.144;2022-09-06T03:18:53;9.60;;;6.53;;
45642;SDS011;31358;46.008;11.144;2022-09-06T03:21:19;7.82;;;6.15;;
45642;SDS011;31358;46.008;11.144;2022-09-06T03:23:45;7.97;;;5.70;;
45642;SDS011;31358;46.008;11.144;2022-09-06T03:26:10;7.47;;;5.30;;
45642;SDS011;31358;46.008;11.144;2022-09-06T03:28:36;8.75;;;5.88;;
45642;SDS011;31358;46.008;11.144;2022-09-06T03:31:02;9.23;;;6.35;;
45642;SDS011;31358;46.008;11.144;2022-09-06T03:33:28;7.18;;;6.03;;
45642;SDS011;31358;46.008;11.144;2022-09-06T03:35:55;7.15;;;5.88;;
45642;SDS011;31358;46.008;11.144;2022-09-06T03:38:23;9.43;;;5.97;;
45642;SDS011;31358;46.008;11.144;2022-09-06T03:40:50;7.82;;;6.35;;
45642;SDS011;31358;46.008;11.144;2022-09-06T03:43:17;6.80;;;5.32;;
45642;SDS011;31358;46.008;11.144;2022-09-06T03:45:48;7.97;;;6.47;;
45642;SDS011;31358;46.008;11.144;2022-09-06T03:48:16;7.10;;;5.90;;
45642;SDS011;31358;46.008;11.144;2022-09-06T03:50:43;7.35;;;5.57;;
45642;SDS011;31358;46.008;11.144;2022-09-06T03:53:10;7.05;;;5.57;;
45642;SDS011;31358;46.008;11.144;2022-09-06T03:55:37;7.18;;;5.93;;
45642;SDS011;31358;46.008;11.144;2022-09-06T03:58:03;8.07;;;6.15;;
45642;SDS011;31358;46.008;11.144;2022-09-06T04:00:28;9.23;;;5.60;;
45642;SDS011;31358;46.008;11.144;2022-09-06T04:02:54;8.77;;;6.07;;
45642;SDS011;31358;46.008;11.144;2022-09-06T04:05:20;9.55;;;5.93;;
45642;SDS011;31358;46.008;11.144;2022-09-06T04:07:45;8.57;;;6.50;;
45642;SDS011;31358;46.008;11.144;2022-09-06T04:10:11;8.80;;;5.90;;
45642;SDS011;31358;46.008;11.144;2022-09-06T04:12:37;10.77;;;6.63;;
45642;SDS011;31358;46.008;11.144;2022-09-06T04:15:02;9.45;;;6.45;;
45642;SDS011;31358;46.008;11.144;2022-09-06T04:17:28;7.65;;;5.72;;
45642;SDS011;31358;46.008;11.144;2022-09-06T04:19:54;9.60;;;6.43;;
45642;SDS011;31358;46.008;11.144;2022-09-06T04:22:20;10.20;;;6.25;;
45642;SDS011;31358;46.008;11.144;2022-09-06T04:24:45;8.45;;;6.28;;
45642;SDS011;31358;46.008;11.144;2022-09-06T04:27:11;8.23;;;6.32;;
45642;SDS011;31358;46.008;11.144;2022-09-06T04:29:36;15.80;;;6.88;;
45642;SDS011;31358;46.008;11.144;2022-09-06T04:32:02;7.38;;;5.80;;
45642;SDS011;31358;46.008;11.144;2022-09-06T04:34:28;7.38;;;6.28;;
45642;SDS011;31358;46.008;11.144;2022-09-06T04:36:54;10.20;;;6.25;;
45642;SDS011;31358;46.008;11.144;2022-09-06T04:39:20;7.93;;;6.18;;
45642;SDS011;31358;46.008;11.144;2022-09-06T04:41:45;7.45;;;6.18;;
45642;SDS011;31358;46.008;11.144;2022-09-06T04:44:11;8.15;;;6.10;;
45642;SDS011;31358;46.008;11.144;2022-09-06T04:46:36;15.20;;;6.43;;
45642;SDS011;31358;46.008;11.144;2022-09-06T04:49:06;8.55;;;6.43;;
45642;SDS011;31358;46.008;11.144;2022-09-06T04:51:31;8.73;;;6.93;;
45642;SDS011;31358;46.008;11.144;2022-09-06T04:53:57;8.07;;;6.18;;
45642;SDS011;31358;46.008;11.144;2022-09-06T04:56:23;9.32;;;6.15;;
45642;SDS011;31358;46.008;11.144;2022-09-06T04:58:51;7.78;;;6.53;;
45642;SDS011;31358;46.008;11.144;2022-09-06T05:01:18;8.27;;;5.38;;
45642;SDS011;31358;46.008;11.144;2022-09-06T05:03:44;10.90;;;5.95;;
45642;SDS011;31358;46.008;11.144;2022-09-06T05:06:12;8.43;;;5.75;;
45642;SDS011;31358;46.008;11.144;2022-09-06T05:08:45;7.95;;;5.45;;
45642;SDS011;31358;46.008;11.144;2022-09-06T05:11:11;9.85;;;6.03;;
45642;SDS011;31358;46.008;11.144;2022-09-06T05:13:37;7.05;;;5.68;;
45642;SDS011;31358;46.008;11.144;2022-09-06T05:16:04;8.05;;;6.20;;
45642;SDS011;31358;46.008;11.144;2022-09-06T05:18:31;9.85;;;6.05;;
45642;SDS011;31358;46.008;11.144;2022-09-06T05:20:58;10.57;;;5.95;;
45642;SDS011;31358;46.008;11.144;2022-09-06T05:23:24;10.07;;;6.13;;
45642;SDS011;31358;46.008;11.144;2022-09-06T05:25:50;7.28;;;5.63;;
45642;SDS011;31358;46.008;11.144;2022-09-06T05:28:16;21.65;;;6.65;;
45642;SDS011;31358;46.008;11.144;2022-09-06T05:30:43;9.50;;;6.15;;
45642;SDS011;31358;46.008;11.144;2022-09-06T05:33:09;8.25;;;6.03;;
45642;SDS011;31358;46.008;11.144;2022-09-06T05:35:36;8.38;;;5.95;;
45642;SDS011;31358;46.008;11.144;2022-09-06T05:38:02;8.68;;;5.75;;
45642;SDS011;31358;46.008;11.144;2022-09-06T05:40:28;9.13;;;6.63;;
45642;SDS011;31358;46.008;11.144;2022-09-06T05:42:53;8.50;;;5.78;;
45642;SDS011;31358;46.008;11.144;2022-09-06T05:45:19;10.40;;;6.10;;
45642;SDS011;31358;46.008;11.144;2022-09-06T05:47:45;11.25;;;5.90;;
45642;SDS011;31358;46.008;11.144;2022-09-06T05:50:10;9.40;;;5.97;;
45642;SDS011;31358;46.008;11.144;2022-09-06T05:52:36;10.25;;;5.97;;
45642;SDS011;31358;46.008;11.144;2022-09-06T05:55:03;9.82;;;7.03;;
45642;SDS011;31358;46.008;11.144;2022-09-06T05:57:29;8.05;;;6.30;;
45642;SDS011;31358;46.008;11.144;2022-09-06T05:59:55;9.63;;;6.80;;
45642;SDS011;31358;46.008;11.144;2022-09-06T06:02:21;9.65;;;6.28;;
45642;SDS011;31358;46.008;11.144;2022-09-06T06:04:47;10.82;;;6.53;;
45642;SDS011;31358;46.008;11.144;2022-09-06T06:07:13;9.63;;;5.93;;
45642;SDS011;31358;46.008;11.144;2022-09-06T06:09:40;7.72;;;5.90;;
45642;SDS011;31358;46.008;11.144;2022-09-06T06:12:06;7.03;;;5.65;;
45642;SDS011;31358;46.008;11.144;2022-09-06T06:14:32;7.93;;;6.13;;
45642;SDS011;31358;46.008;11.144;2022-09-06T06:16:58;7.65;;;5.97;;
45642;SDS011;31358;46.008;11.144;2022-09-06T06:19:24;9.38;;;6.07;;
45642;SDS011;31358;46.008;11.144;2022-09-06T06:21:50;7.60;;;6.00;;
45642;SDS011;31358;46.008;11.144;2022-09-06T06:24:16;7.55;;;6.18;;
45642;SDS011;31358;46.008;11.144;2022-09-06T06:26:42;10.38;;;6.47;;
45642;SDS011;31358;46.008;11.144;2022-09-06T06:29:08;7.97;;;5.97;;
45642;SDS011;31358;46.008;11.144;2022-09-06T06:31:34;9.45;;;5.80;;
45642;SDS011;31358;46.008;11.144;2022-09-06T06:34:01;7.50;;;6.07;;
45642;SDS011;31358;46.008;11.144;2022-09-06T06:36:28;8.18;;;6.15;;
45642;SDS011;31358;46.008;11.144;2022-09-06T06:38:56;8.02;;;5.95;;
45642;SDS011;31358;46.008;11.144;2022-09-06T06:41:23;7.20;;;5.72;;
45642;SDS011;31358;46.008;11.144;2022-09-06T06:43:53;12.63;;;5.55;;
45642;SDS011;31358;46.008;11.144;2022-09-06T06:46:21;10.43;;;6.40;;
45642;SDS011;31358;46.008;11.144;2022-09-06T06:48:51;8.07;;;6.30;;
45642;SDS011;31358;46.008;11.144;2022-09-06T06:51:21;7.55;;;6.03;;
45642;SDS011;31358;46.008;11.144;2022-09-06T06:53:57;8.95;;;6.20;;
45642;SDS011;31358;46.008;11.144;2022-09-06T06:58:53;6.97;;;5.43;;
45642;SDS011;31358;46.008;11.144;2022-09-06T07:01:21;7.57;;;5.85;;
45642;SDS011;31358;46.008;11.144;2022-09-06T07:03:48;8.27;;;6.03;;
45642;SDS011;31358;46.008;11.144;2022-09-06T07:06:14;9.57;;;5.60;;
45642;SDS011;31358;46.008;11.144;2022-09-06T07:08:41;7.90;;;4.75;;
45642;SDS011;31358;46.008;11.144;2022-09-06T07:11:08;8.77;;;5.47;;
45642;SDS011;31358;46.008;11.144;2022-09-06T07:13:36;9.02;;;5.78;;
45642;SDS011;31358;46.008;11.144;2022-09-06T07:16:08;8.63;;;5.90;;
45642;SDS011;31358;46.008;11.144;2022-09-06T07:18:39;7.43;;;4.90;;
45642;SDS011;31358;46.008;11.144;2022-09-06T07:21:16;9.18;;;5.03;;
45642;SDS011;31358;46.008;11.144;2022-09-06T07:23:51;10.88;;;5.80;;
45642;SDS011;31358;46.008;11.144;2022-09-06T07:26:18;6.47;;;5.20;;
45642;SDS011;31358;46.008;11.144;2022-09-06T07:28:46;8.18;;;5.50;;
45642;SDS011;31358;46.008;11.144;2022-09-06T07:31:12;7.10;;;5.78;;
45642;SDS011;31358;46.008;11.144;2022-09-06T07:33:38;84.22;;;13.52;;
45642;SDS011;31358;46.008;11.144;2022-09-06T07:36:05;12.82;;;6.75;;
45642;SDS011;31358;46.008;11.144;2022-09-06T07:38:32;7.78;;;6.00;;
45642;SDS011;31358;46.008;11.144;2022-09-06T07:40:59;10.20;;;6.10;;
45642;SDS011;31358;46.008;11.144;2022-09-06T07:43:27;9.68;;;6.03;;
45642;SDS011;31358;46.008;11.144;2022-09-06T07:46:00;13.13;;;6.53;;
45642;SDS011;31358;46.008;11.144;2022-09-06T07:48:28;16.42;;;6.13;;
45642;SDS011;31358;46.008;11.144;2022-09-06T07:51:01;7.60;;;5.85;;
45642;SDS011;31358;46.008;11.144;2022-09-06T07:53:48;7.10;;;5.85;;
45642;SDS011;31358;46.008;11.144;2022-09-06T07:56:20;8.43;;;5.57;;
45642;SDS011;31358;46.008;11.144;2022-09-06T07:58:46;8.02;;;5.53;;
45642;SDS011;31358;46.008;11.144;2022-09-06T08:03:43;7.10;;;6.28;;
45642;SDS011;31358;46.008;11.144;2022-09-06T08:06:09;10.95;;;6.72;;
45642;SDS011;31358;46.008;11.144;2022-09-06T08:08:35;8.70;;;5.70;;
45642;SDS011;31358;46.008;11.144;2022-09-06T08:11:01;15.88;;;6.05;;
45642;SDS011;31358;46.008;11.144;2022-09-06T08:13:27;9.85;;;6.07;;
45642;SDS011;31358;46.008;11.144;2022-09-06T08:16:00;17.23;;;6.70;;
45642;SDS011;31358;46.008;11.144;2022-09-06T08:18:26;8.55;;;5.88;;
45642;SDS011;31358;46.008;11.144;2022-09-06T08:20:52;8.68;;;6.00;;
45642;SDS011;31358;46.008;11.144;2022-09-06T08:23:18;9.38;;;6.18;;
45642;SDS011;31358;46.008;11.144;2022-09-06T08:25:44;7.50;;;5.53;;
45642;SDS011;31358;46.008;11.144;2022-09-06T08:28:19;9.32;;;5.63;;
45642;SDS011;31358;46.008;11.144;2022-09-06T08:30:45;9.98;;;5.90;;
45642;SDS011;31358;46.008;11.144;2022-09-06T08:33:10;7.25;;;6.10;;
45642;SDS011;31358;46.008;11.144;2022-09-06T08:35:36;10.40;;;5.68;;
45642;SDS011;31358;46.008;11.144;2022-09-06T08:38:01;11.82;;;6.57;;
45642;SDS011;31358;46.008;11.144;2022-09-06T08:40:29;27.95;;;5.88;;
45642;SDS011;31358;46.008;11.144;2022-09-06T08:42:56;8.63;;;6.07;;
45642;SDS011;31358;46.008;11.144;2022-09-06T08:45:22;6.95;;;5.72;;
45642;SDS011;31358;46.008;11.144;2022-09-06T08:47:48;8.32;;;5.63;;
45642;SDS011;31358;46.008;11.144;2022-09-06T08:50:16;8.05;;;6.55;;
45642;SDS011;31358;46.008;11.144;2022-09-06T08:55:31;7.97;;;5.70;;
45642;SDS011;31358;46.008;11.144;2022-09-06T09:00:32;8.63;;;5.70;;
45642;SDS011;31358;46.008;11.144;2022-09-06T09:03:08;8.85;;;4.78;;
45642;SDS011;31358;46.008;11.144;2022-09-06T09:05:48;5.85;;;4.65;;
45642;SDS011;31358;46.008;11.144;2022-09-06T09:10:57;6.60;;;4.82;;
45642;SDS011;31358;46.008;11.144;2022-09-06T09:13:38;6.80;;;5.18;;
45642;SDS011;31358;46.008;11.144;2022-09-06T09:16:10;7.00;;;5.50;;
45642;SDS011;31358;46.008;11.144;2022-09-06T09:18:37;6.35;;;5.38;;
45642;SDS011;31358;46.008;11.144;2022-09-06T09:21:06;11.02;;;6.10;;
45642;SDS011;31358;46.008;11.144;2022-09-06T09:23:34;6.93;;;5.68;;
45642;SDS011;31358;46.008;11.144;2022-09-06T09:26:01;8.38;;;5.10;;
45642;SDS011;31358;46.008;11.144;2022-09-06T09:28:29;8.50;;;5.57;;
45642;SDS011;31358;46.008;11.144;2022-09-06T09:30:55;9.90;;;5.57;;
45642;SDS011;31358;46.008;11.144;2022-09-06T09:33:28;7.13;;;5.25;;
45642;SDS011;31358;46.008;11.144;2022-09-06T09:35:58;8.77;;;4.82;;
45642;SDS011;31358;46.008;11.144;2022-09-06T09:38:30;8.32;;;5.60;;
45642;SDS011;31358;46.008;11.144;2022-09-06T09:41:04;11.57;;;5.25;;
45642;SDS011;31358;46.008;11.144;2022-09-06T09:51:27;7.38;;;5.03;;
45642;SDS011;31358;46.008;11.144;2022-09-06T09:53:55;6.45;;;4.78;;
45642;SDS011;31358;46.008;11.144;2022-09-06T09:56:33;7.25;;;5.75;;
45642;SDS011;31358;46.008;11.144;2022-09-06T09:59:04;7.15;;;5.35;;
45642;SDS011;31358;46.008;11.144;2022-09-06T10:01:39;6.88;;;5.28;;
45642;SDS011;31358;46.008;11.144;2022-09-06T10:04:06;6.90;;;4.80;;
45642;SDS011;31358;46.008;11.144;2022-09-06T10:06:35;7.85;;;5.70;;
45642;SDS011;31358;46.008;11.144;2022-09-06T10:11:56;8.57;;;5.25;;
45642;SDS011;31358;46.008;11.144;2022-09-06T10:14:25;7.50;;;5.60;;
45642;SDS011;31358;46.008;11.144;2022-09-06T10:17:04;9.23;;;5.18;;
45642;SDS011;31358;46.008;11.144;2022-09-06T10:22:22;6.88;;;5.05;;
45642;SDS011;31358;46.008;11.144;2022-09-06T10:25:02;6.10;;;5.05;;
45642;SDS011;31358;46.008;11.144;2022-09-06T10:27:46;8.90;;;5.15;;
45642;SDS011;31358;46.008;11.144;2022-09-06T10:30:35;8.88;;;5.32;;
45642;SDS011;31358;46.008;11.144;2022-09-06T10:33:25;9.57;;;5.57;;
45642;SDS011;31358;46.008;11.144;2022-09-06T10:36:10;7.53;;;6.03;;
45642;SDS011;31358;46.008;11.144;2022-09-06T10:46:23;7.82;;;5.20;;
45642;SDS011;31358;46.008;11.144;2022-09-06T10:48:50;8.35;;;5.47;;
45642;SDS011;31358;46.008;11.144;2022-09-06T10:54:01;10.00;;;4.88;;
45642;SDS011;31358;46.008;11.144;2022-09-06T10:56:52;9.48;;;6.05;;
45642;SDS011;31358;46.008;11.144;2022-09-06T10:59:37;6.57;;;4.82;;
45642;SDS011;31358;46.008;11.144;2022-09-06T11:04:40;10.10;;;5.10;;
45642;SDS011;31358;46.008;11.144;2022-09-06T11:09:45;8.10;;;4.80;;
45642;SDS011;31358;46.008;11.144;2022-09-06T11:12:17;7.20;;;4.93;;
45642;SDS011;31358;46.008;11.144;2022-09-06T11:14:53;7.55;;;4.70;;
45642;SDS011;31358;46.008;11.144;2022-09-06T11:20:47;7.68;;;4.70;;
45642;SDS011;31358;46.008;11.144;2022-09-06T11:23:42;7.45;;;5.13;;
45642;SDS011;31358;46.008;11.144;2022-09-06T11:26:32;7.05;;;4.90;;
45642;SDS011;31358;46.008;11.144;2022-09-06T11:29:07;5.68;;;4.38;;
45642;SDS011;31358;46.008;11.144;2022-09-06T11:31:55;6.32;;;4.57;;
45642;SDS011;31358;46.008;11.144;2022-09-06T11:34:24;7.47;;;5.00;;
45642;SDS011;31358;46.008;11.144;2022-09-06T11:36:57;8.02;;;4.15;;
45642;SDS011;31358;46.008;11.144;2022-09-06T11:41:59;9.20;;;4.70;;
45642;SDS011;31358;46.008;11.144;2022-09-06T11:47:36;6.43;;;4.95;;
45642;SDS011;31358;46.008;11.144;2022-09-06T11:55:30;6.07;;;4.03;;
45642;SDS011;31358;46.008;11.144;2022-09-06T11:58:00;6.10;;;3.78;;
45642;SDS011;31358;46.008;11.144;2022-09-06T12:00:28;5.03;;;4.03;;
45642;SDS011;31358;46.008;11.144;2022-09-06T12:02:54;9.23;;;4.93;;
45642;SDS011;31358;46.008;11.144;2022-09-06T12:05:24;7.85;;;4.13;;
45642;SDS011;31358;46.008;11.144;2022-09-06T12:10:59;6.28;;;3.60;;
45642;SDS011;31358;46.008;11.144;2022-09-06T12:16:11;6.72;;;3.60;;
45642;SDS011;31358;46.008;11.144;2022-09-06T12:24:00;5.85;;;3.13;;
45642;SDS011;31358;46.008;11.144;2022-09-06T12:29:25;9.10;;;3.88;;
45642;SDS011;31358;46.008;11.144;2022-09-06T12:31:53;4.47;;;3.22;;
45642;SDS011;31358;46.008;11.144;2022-09-06T12:34:24;7.18;;;3.50;;
45642;SDS011;31358;46.008;11.144;2022-09-06T12:39:28;6.18;;;3.72;;
45642;SDS011;31358;46.008;11.144;2022-09-06T12:41:55;6.70;;;3.53;;
45642;SDS011;31358;46.008;11.144;2022-09-06T12:44:33;6.03;;;3.20;;
45642;SDS011;31358;46.008;11.144;2022-09-06T12:47:27;5.38;;;3.47;;
45642;SDS011;31358;46.008;11.144;2022-09-06T12:50:10;7.10;;;3.33;;
45642;SDS011;31358;46.008;11.144;2022-09-06T12:53:15;8.55;;;3.60;;
45642;SDS011;31358;46.008;11.144;2022-09-06T12:55:41;6.97;;;3.85;;
45642;SDS011;31358;46.008;11.144;2022-09-06T12:58:08;7.03;;;3.92;;
45642;SDS011;31358;46.008;11.144;2022-09-06T13:00:36;6.13;;;3.83;;
45642;SDS011;31358;46.008;11.144;2022-09-06T13:05:58;5.13;;;3.13;;
45642;SDS011;31358;46.008;11.144;2022-09-06T13:09:14;5.82;;;3.47;;
45642;SDS011;31358;46.008;11.144;2022-09-06T13:11:22;9.98;;;3.17;;
45642;SDS011;31358;46.008;11.144;2022-09-06T13:13:52;6.72;;;3.92;;
45642;SDS011;31358;46.008;11.144;2022-09-06T13:16:22;6.50;;;3.38;;
45642;SDS011;31358;46.008;11.144;2022-09-06T13:18:51;5.85;;;3.33;;
45642;SDS011;31358;46.008;11.144;2022-09-06T13:21:24;5.32;;;3.15;;
45642;SDS011;31358;46.008;11.144;2022-09-06T13:23:56;6.32;;;3.40;;
45642;SDS011;31358;46.008;11.144;2022-09-06T13:31:50;8.20;;;3.78;;
45642;SDS011;31358;46.008;11.144;2022-09-06T13:34:24;5.68;;;3.17;;
45642;SDS011;31358;46.008;11.144;2022-09-06T13:36:53;7.85;;;3.38;;
45642;SDS011;31358;46.008;11.144;2022-09-06T13:39:34;5.35;;;3.40;;
45642;SDS011;31358;46.008;11.144;2022-09-06T13:44:57;6.15;;;3.20;;
45642;SDS011;31358;46.008;11.144;2022-09-06T13:47:26;6.50;;;3.53;;
45642;SDS011;31358;46.008;11.144;2022-09-06T13:49:53;9.55;;;3.33;;
45642;SDS011;31358;46.008;11.144;2022-09-06T13:52:19;4.70;;;3.00;;
45642;SDS011;31358;46.008;11.144;2022-09-06T13:54:45;5.70;;;3.03;;
45642;SDS011;31358;46.008;11.144;2022-09-06T13:57:12;8.82;;;2.85;;
45642;SDS011;31358;46.008;11.144;2022-09-06T13:59:38;5.75;;;3.00;;
45642;SDS011;31358;46.008;11.144;2022-09-06T14:02:07;9.85;;;3.55;;
45642;SDS011;31358;46.008;11.144;2022-09-06T14:04:35;4.93;;;3.03;;
45642;SDS011;31358;46.008;11.144;2022-09-06T14:07:02;4.80;;;3.25;;
45642;SDS011;31358;46.008;11.144;2022-09-06T14:09:28;6.40;;;2.88;;
45642;SDS011;31358;46.008;11.144;2022-09-06T14:11:54;4.65;;;3.10;;
45642;SDS011;31358;46.008;11.144;2022-09-06T14:14:20;7.07;;;3.53;;
45642;SDS011;31358;46.008;11.144;2022-09-06T14:16:46;4.75;;;3.13;;
45642;SDS011;31358;46.008;11.144;2022-09-06T14:19:12;9.07;;;3.22;;
45642;SDS011;31358;46.008;11.144;2022-09-06T14:21:38;6.90;;;3.22;;
45642;SDS011;31358;46.008;11.144;2022-09-06T14:24:04;6.90;;;2.72;;
45642;SDS011;31358;46.008;11.144;2022-09-06T14:26:30;7.07;;;3.22;;
45642;SDS011;31358;46.008;11.144;2022-09-06T14:28:57;6.70;;;3.65;;
45642;SDS011;31358;46.008;11.144;2022-09-06T14:31:24;7.03;;;3.22;;
45642;SDS011;31358;46.008;11.144;2022-09-06T14:33:51;9.73;;;3.50;;
45642;SDS011;31358;46.008;11.144;2022-09-06T14:36:19;6.63;;;2.85;;
45642;SDS011;31358;46.008;11.144;2022-09-06T14:38:49;5.32;;;2.70;;
45642;SDS011;31358;46.008;11.144;2022-09-06T14:41:16;7.53;;;3.05;;
45642;SDS011;31358;46.008;11.144;2022-09-06T14:43:43;9.77;;;3.70;;
45642;SDS011;31358;46.008;11.144;2022-09-06T14:46:12;6.55;;;3.47;;
45642;SDS011;31358;46.008;11.144;2022-09-06T14:48:39;5.53;;;3.28;;
45642;SDS011;31358;46.008;11.144;2022-09-06T14:51:06;6.82;;;3.22;;
45642;SDS011;31358;46.008;11.144;2022-09-06T14:53:33;8.68;;;3.25;;
45642;SDS011;31358;46.008;11.144;2022-09-06T14:56:02;7.20;;;3.00;;
45642;SDS011;31358;46.008;11.144;2022-09-06T14:58:31;8.38;;;3.08;;
45642;SDS011;31358;46.008;11.144;2022-09-06T15:01:11;7.50;;;3.47;;
45642;SDS011;31358;46.008;11.144;2022-09-06T15:03:37;5.30;;;2.80;;
45642;SDS011;31358;46.008;11.144;2022-09-06T15:06:07;7.10;;;2.75;;
45642;SDS011;31358;46.008;11.144;2022-09-06T15:08:34;6.40;;;3.72;;
45642;SDS011;31358;46.008;11.144;2022-09-06T15:11:02;5.78;;;3.03;;
45642;SDS011;31358;46.008;11.144;2022-09-06T15:13:29;6.78;;;3.47;;
45642;SDS011;31358;46.008;11.144;2022-09-06T15:15:55;5.03;;;2.92;;
45642;SDS011;31358;46.008;11.144;2022-09-06T15:18:21;6.07;;;3.17;;
45642;SDS011;31358;46.008;11.144;2022-09-06T15:20:47;9.55;;;3.20;;
45642;SDS011;31358;46.008;11.144;2022-09-06T15:23:13;5.88;;;2.72;;
45642;SDS011;31358;46.008;11.144;2022-09-06T15:25:49;5.10;;;3.00;;
45642;SDS011;31358;46.008;11.144;2022-09-06T15:28:16;13.23;;;4.57;;
45642;SDS011;31358;46.008;11.144;2022-09-06T15:30:43;6.47;;;3.75;;
45642;SDS011;31358;46.008;11.144;2022-09-06T15:33:10;5.97;;;3.13;;
45642;SDS011;31358;46.008;11.144;2022-09-06T15:35:39;6.03;;;3.75;;
45642;SDS011;31358;46.008;11.144;2022-09-06T15:38:06;7.18;;;3.67;;
45642;SDS011;31358;46.008;11.144;2022-09-06T15:40:31;8.68;;;3.30;;
45642;SDS011;31358;46.008;11.144;2022-09-06T15:42:57;7.68;;;3.13;;
45642;SDS011;31358;46.008;11.144;2022-09-06T15:45:23;6.20;;;2.90;;
45642;SDS011;31358;46.008;11.144;2022-09-06T15:47:49;6.70;;;3.10;;
45642;SDS011;31358;46.008;11.144;2022-09-06T15:50:14;8.45;;;3.13;;
45642;SDS011;31358;46.008;11.144;2022-09-06T15:52:40;5.32;;;3.10;;
45642;SDS011;31358;46.008;11.144;2022-09-06T15:55:06;4.95;;;2.75;;
45642;SDS011;31358;46.008;11.144;2022-09-06T15:57:50;7.07;;;2.80;;
45642;SDS011;31358;46.008;11.144;2022-09-06T16:00:16;8.82;;;2.95;;
45642;SDS011;31358;46.008;11.144;2022-09-06T16:02:45;8.18;;;3.17;;
45642;SDS011;31358;46.008;11.144;2022-09-06T16:05:11;8.48;;;3.33;;
45642;SDS011;31358;46.008;11.144;2022-09-06T16:07:37;7.93;;;3.53;;
45642;SDS011;31358;46.008;11.144;2022-09-06T16:10:07;6.82;;;3.22;;
45642;SDS011;31358;46.008;11.144;2022-09-06T16:12:36;6.40;;;3.30;;
45642;SDS011;31358;46.008;11.144;2022-09-06T16:15:02;4.80;;;3.53;;
45642;SDS011;31358;46.008;11.144;2022-09-06T16:17:28;7.43;;;3.15;;
45642;SDS011;31358;46.008;11.144;2022-09-06T16:19:55;6.53;;;3.40;;
45642;SDS011;31358;46.008;11.144;2022-09-06T16:22:22;7.15;;;3.30;;
45642;SDS011;31358;46.008;11.144;2022-09-06T16:24:47;8.52;;;3.60;;
45642;SDS011;31358;46.008;11.144;2022-09-06T16:27:13;8.57;;;3.45;;
45642;SDS011;31358;46.008;11.144;2022-09-06T16:29:39;5.85;;;3.22;;
45642;SDS011;31358;46.008;11.144;2022-09-06T16:32:05;5.18;;;3.53;;
45642;SDS011;31358;46.008;11.144;2022-09-06T16:34:31;7.80;;;3.35;;
45642;SDS011;31358;46.008;11.144;2022-09-06T16:36:57;7.03;;;3.97;;
45642;SDS011;31358;46.008;11.144;2022-09-06T16:39:24;7.32;;;3.15;;